Time;durP1;ratioP1;P1;durP2;ratioP2;P2;SDS_P1;SDS_P2;PMS_P1;PMS_P2;Temp;Humidity;BMP_temperature;BMP_pressure;BME280_temperature;BME280_humidity;BME280_pressure;Samples;Min_cycle;Max_cycle;Signal;HPM_P1;HPM_P2
2021/07/11 00:03:21;;;;;;;8.55;7.85;;;;;;;14.22;74.50;100095.74;254539;1110;115196;-69
2021/07/11 00:08:24;;;;;;;7.88;6.33;;;;;;;14.17;74.77;100091.13;252950;1110;115337;-69
2021/07/11 00:13:27;;;;;;;8.53;7.83;;;;;;;14.22;74.87;100088.51;253924;1110;115670;-68
2021/07/11 00:18:30;;;;;;;8.20;7.38;;;;;;;14.21;74.98;100084.20;254606;1110;115495;-69
2021/07/11 00:23:33;;;;;;;7.08;6.58;;;;;;;14.27;74.58;100091.26;254300;1110;115427;-68
2021/07/11 00:28:36;;;;;;;8.15;7.30;;;;;;;14.26;74.75;100094.19;254573;1110;116085;-68
2021/07/11 00:33:39;;;;;;;7.10;6.60;;;;;;;14.18;74.35;100094.62;254568;1110;115668;-68
2021/07/11 00:38:42;;;;;;;7.05;6.38;;;;;;;14.03;74.71;100095.25;253546;1110;115983;-69
2021/07/11 00:43:45;;;;;;;11.23;9.95;;;;;;;13.93;74.82;100095.92;252013;1110;117497;-69
2021/07/11 00:48:49;;;;;;;22.93;19.63;;;;;;;13.92;74.99;100098.84;252065;1110;115777;-66
2021/07/11 00:53:53;;;;;;;30.25;24.88;;;;;;;13.90;75.73;100096.41;252766;1110;115643;-68
2021/07/11 00:58:57;;;;;;;26.23;22.93;;;;;;;13.94;75.57;100099.41;251885;1110;116280;-69
2021/07/11 01:04:05;;;;;;;22.38;19.25;;;;;;;13.95;75.37;100101.03;253166;1110;117262;-68
2021/07/11 01:09:16;;;;;;;22.73;19.75;;;;;;;13.82;75.51;100096.83;252092;1110;116280;-68
2021/07/11 01:14:22;;;;;;;13.33;12.13;;;;;;;13.72;75.35;100110.10;252795;1110;116052;-68
2021/07/11 01:19:47;;;;;;;15.18;13.75;;;;;;;13.62;75.50;100109.94;252294;1110;114773;-68
2021/07/11 01:25:13;;;;;;;15.10;13.63;;;;;;;13.61;75.72;100103.77;252341;1110;115465;-68
2021/07/11 01:30:19;;;;;;;16.18;14.48;;;;;;;13.57;75.70;100107.99;252240;1110;116963;-68
2021/07/11 01:35:24;;;;;;;14.65;13.18;;;;;;;13.54;76.20;100113.84;253352;1106;115520;-68
2021/07/11 01:40:29;;;;;;;13.63;12.23;;;;;;;13.49;75.77;100111.89;252378;1110;116204;-67
2021/07/11 01:45:33;;;;;;;14.43;13.00;;;;;;;13.46;76.13;100109.70;253072;1109;116191;-68
2021/07/11 01:50:36;;;;;;;15.70;10.33;;;;;;;13.45;76.09;100118.78;252102;1110;117302;-67
2021/07/11 01:55:40;;;;;;;11.75;9.18;;;;;;;13.44;76.17;100116.38;253183;1110;115915;-66
2021/07/11 02:00:42;;;;;;;11.95;8.80;;;;;;;13.42;76.28;100116.63;252292;1110;115157;-66
2021/07/11 02:05:49;;;;;;;9.33;8.25;;;;;;;13.35;75.86;100105.25;252361;1110;116484;-66
2021/07/11 02:10:54;;;;;;;9.33;7.97;;;;;;;13.33;76.25;100101.20;254422;1110;119531;-66
2021/07/11 02:16:03;;;;;;;15.77;8.90;;;;;;;13.38;76.44;100110.13;254408;1110;115165;-67
2021/07/11 02:21:07;;;;;;;8.18;7.25;;;;;;;13.32;76.08;100103.06;254472;1110;115682;-67
2021/07/11 02:26:10;;;;;;;9.10;6.68;;;;;;;13.26;75.83;100108.58;254309;1110;115144;-67
2021/07/11 02:31:14;;;;;;;6.63;6.03;;;;;;;13.26;76.23;100105.89;254547;1110;115424;-66
2021/07/11 02:36:22;;;;;;;7.55;6.68;;;;;;;13.27;76.32;100110.20;253843;1104;115801;-66
2021/07/11 02:41:30;;;;;;;18.53;16.10;;;;;;;13.27;76.32;100112.88;253089;1110;116392;-65
2021/07/11 02:46:42;;;;;;;10.48;9.08;;;;;;;13.31;76.97;100105.98;252842;1106;115440;-65
2021/07/11 02:51:51;;;;;;;7.23;5.97;;;;;;;13.34;76.75;100122.38;252822;1110;115840;-65
2021/07/11 02:57:04;;;;;;;7.28;6.30;;;;;;;13.35;76.42;100117.83;252607;1110;115705;-67
2021/07/11 03:02:09;;;;;;;8.88;8.03;;;;;;;13.37;76.69;100110.37;252154;1111;116698;-67
2021/07/11 03:07:14;;;;;;;8.78;7.13;;;;;;;13.35;76.83;100109.80;252373;1110;115846;-67
2021/07/11 03:12:18;;;;;;;11.55;7.78;;;;;;;13.32;76.54;100120.99;251921;1106;115245;-66
2021/07/11 03:17:25;;;;;;;7.05;6.23;;;;;;;13.32;76.75;100119.13;252222;1110;116241;-67
2021/07/11 03:22:32;;;;;;;7.83;7.15;;;;;;;13.38;77.19;100130.73;252631;1110;115647;-67
2021/07/11 03:27:37;;;;;;;9.90;7.63;;;;;;;13.47;76.98;100134.61;252018;1110;115915;-67
2021/07/11 03:32:43;;;;;;;12.23;7.85;;;;;;;13.54;77.39;100137.94;252245;1110;115220;-67
2021/07/11 03:37:49;;;;;;;8.78;8.03;;;;;;;13.64;77.42;100146.15;252648;1106;115391;-67
2021/07/11 03:42:57;;;;;;;10.15;7.85;;;;;;;13.77;77.25;100137.75;252348;1110;115745;-67
2021/07/11 03:48:13;;;;;;;9.93;7.98;;;;;;;13.97;77.45;100144.48;252048;1110;114989;-67
2021/07/11 03:53:29;;;;;;;11.25;7.48;;;;;;;14.17;77.46;100150.11;252518;1110;115551;-67
2021/07/11 03:58:35;;;;;;;;;;;;;;;14.36;77.46;100150.64;252079;1110;115885;-67
2021/07/11 04:03:42;;;;;;;10.10;9.20;;;;;;;14.54;77.40;100150.34;254662;1110;103030;-68
2021/07/11 04:08:48;;;;;;;17.43;9.83;;;;;;;14.65;77.22;100148.59;253470;1110;115568;-67
2021/07/11 04:13:52;;;;;;;8.75;7.93;;;;;;;15.00;76.94;100157.00;254569;1110;115984;-67
2021/07/11 04:18:57;;;;;;;8.53;7.73;;;;;;;15.20;77.35;100163.65;253110;1110;115278;-67
2021/07/11 04:24:02;;;;;;;9.40;8.60;;;;;;;15.88;77.03;100165.58;253866;1110;115487;-67
2021/07/11 04:29:06;;;;;;;7.43;6.83;;;;;;;17.36;75.32;100153.45;254435;1110;116177;-67
2021/07/11 04:34:24;;;;;;;9.37;7.90;;;;;;;18.43;74.33;100162.18;254482;1110;115536;-67
2021/07/11 04:39:29;;;;;;;7.50;6.83;;;;;;;19.64;72.83;100163.36;254629;1110;115211;-66
2021/07/11 04:44:33;;;;;;;7.07;6.47;;;;;;;22.97;69.27;100160.38;252677;1110;115228;-67
2021/07/11 04:49:38;;;;;;;8.78;5.85;;;;;;;22.93;68.87;100164.05;253292;1110;116023;-67
2021/07/11 04:54:42;;;;;;;6.00;5.50;;;;;;;24.18;66.16;100170.14;253319;1110;115672;-68
2021/07/11 04:59:46;;;;;;;7.33;6.23;;;;;;;23.60;65.94;100173.05;252687;1110;115872;-67
2021/07/11 05:04:49;;;;;;;6.15;5.55;;;;;;;22.93;66.16;100172.97;253409;1105;115264;-67
2021/07/11 05:09:54;;;;;;;4.60;4.20;;;;;;;23.74;64.06;100168.34;252466;1110;115631;-67
2021/07/11 05:14:58;;;;;;;5.73;5.20;;;;;;;27.88;60.26;100172.00;252261;1110;116350;-67
2021/07/11 05:20:02;;;;;;;4.45;4.15;;;;;;;31.72;56.40;100180.29;252348;1110;115220;-67
2021/07/11 05:25:08;;;;;;;3.40;3.20;;;;;;;34.73;52.40;100181.66;252156;1110;116358;-70
2021/07/11 05:30:14;;;;;;;4.70;2.23;;;;;;;37.06;48.69;100183.16;252336;1110;115471;-68
2021/07/11 05:35:17;;;;;;;2.30;1.50;;;;;;;38.83;44.93;100182.30;252027;1110;115219;-68
2021/07/11 05:40:21;;;;;;;1.25;1.23;;;;;;;40.42;41.99;100172.82;252409;1110;115456;-68
2021/07/11 05:45:25;;;;;;;1.20;1.10;;;;;;;41.61;39.26;100167.98;252047;1110;114950;-68
2021/07/11 05:53:50;;;;;;;1.43;1.40;;;;;;;43.09;35.57;100156.89;261132;1093;104747;-68
2021/07/11 05:58:53;;;;;;;1.30;1.10;;;;;;;43.89;34.06;100156.79;254471;1103;115731;-67
2021/07/11 06:03:58;;;;;;;0.68;0.68;;;;;;;44.63;32.32;100148.59;254742;1099;115911;-67
2021/07/11 06:09:01;;;;;;;0.90;0.90;;;;;;;45.05;30.83;100147.45;254428;1104;116279;-68
2021/07/11 06:14:04;;;;;;;3.43;1.10;;;;;;;45.40;29.87;100143.27;255235;1104;116527;-68
2021/07/11 06:19:08;;;;;;;1.70;1.10;;;;;;;45.41;28.35;100141.23;254604;1098;116433;-69
2021/07/11 06:24:12;;;;;;;0.93;0.90;;;;;;;45.39;27.97;100133.25;255911;1100;115454;-69
2021/07/11 06:29:17;;;;;;;0.83;0.83;;;;;;;45.63;27.15;100136.31;257362;1104;115534;-69
2021/07/11 06:34:21;;;;;;;0.90;0.83;;;;;;;45.28;26.54;100141.33;257455;1098;116342;-69
2021/07/11 06:39:24;;;;;;;5.60;1.17;;;;;;;45.10;25.43;100138.41;257396;1104;115271;-69
2021/07/11 06:44:27;;;;;;;1.37;1.20;;;;;;;45.26;25.68;100144.60;255536;1104;115917;-67
2021/07/11 06:49:31;;;;;;;2.47;1.10;;;;;;;44.87;24.25;100146.12;254915;1100;116531;-68
2021/07/11 06:54:35;;;;;;;1.03;1.03;;;;;;;44.39;24.08;100143.83;256169;1104;138678;-66
2021/07/11 06:59:41;;;;;;;1.03;1.03;;;;;;;43.78;24.74;100142.31;255432;1100;115845;-67
2021/07/11 07:04:44;;;;;;;7.20;1.28;;;;;;;42.50;24.55;100146.93;255683;1104;115634;-70
2021/07/11 07:09:48;;;;;;;1.60;0.93;;;;;;;41.26;25.01;100133.22;254060;1099;115570;-70
2021/07/11 07:14:51;;;;;;;3.30;1.50;;;;;;;40.77;25.45;100124.66;254199;1104;116242;-70
2021/07/11 07:19:54;;;;;;;1.33;1.03;;;;;;;40.65;25.84;100128.08;255105;1104;115558;-69
2021/07/11 07:24:57;;;;;;;0.87;0.87;;;;;;;40.79;26.45;100118.63;254292;1104;115616;-68
2021/07/11 07:29:59;;;;;;;1.30;1.30;;;;;;;40.07;26.83;100119.16;254080;1104;223255;-68
2021/07/11 07:35:04;;;;;;;1.93;1.50;;;;;;;39.16;27.05;100116.57;254230;1104;115429;-68
2021/07/11 07:40:07;;;;;;;1.13;1.03;;;;;;;38.45;27.43;100111.86;254132;1099;115360;-70
2021/07/11 07:45:11;;;;;;;4.70;1.53;;;;;;;37.72;27.31;100122.05;254077;1099;115739;-70
2021/07/11 07:50:14;;;;;;;1.40;1.33;;;;;;;36.95;28.85;100115.73;255082;1104;114834;-70
2021/07/11 07:55:17;;;;;;;7.00;1.30;;;;;;;36.37;30.02;100103.22;254228;1104;116007;-69
2021/07/11 08:00:20;;;;;;;1.40;1.40;;;;;;;35.72;29.54;100098.87;254667;1104;115147;-69
2021/07/11 08:05:23;;;;;;;1.10;1.10;;;;;;;35.17;30.36;100100.33;254165;1104;115297;-69
2021/07/11 08:10:26;;;;;;;1.45;1.38;;;;;;;34.74;32.26;100095.42;254904;1104;115299;-70
2021/07/11 08:15:32;;;;;;;0.98;0.80;;;;;;;34.62;32.45;100103.27;254299;1104;115522;-70
2021/07/11 08:20:36;;;;;;;1.60;1.50;;;;;;;34.37;32.48;100103.93;254258;1104;115428;-69
2021/07/11 08:25:40;;;;;;;;;;;;;;;33.98;32.17;100098.09;254265;1104;116023;-70
2021/07/11 08:30:43;;;;;;;;;;;;;;;33.26;32.81;100106.08;256930;1104;103044;-70
2021/07/11 08:35:47;;;;;;;1.70;1.60;;;;;;;32.08;33.31;100106.45;256644;1104;105393;-70
2021/07/11 08:40:51;;;;;;;2.30;2.20;;;;;;;32.05;34.48;100107.98;256039;1104;115363;-71
2021/07/11 08:45:55;;;;;;;4.60;2.23;;;;;;;31.92;34.14;100100.27;257075;1104;115070;-70
2021/07/11 08:51:02;;;;;;;2.00;1.90;;;;;;;31.40;35.10;100102.52;256037;1104;115416;-70
2021/07/11 08:56:18;;;;;;;2.83;1.77;;;;;;;31.10;35.66;100102.31;254546;1104;115375;-70
2021/07/11 09:01:25;;;;;;;2.10;2.00;;;;;;;30.85;35.90;100090.02;255135;1104;118223;-70
2021/07/11 09:06:49;;;;;;;4.03;2.23;;;;;;;30.66;36.38;100089.99;254624;1104;115850;-69
2021/07/11 09:12:06;;;;;;;3.55;2.05;;;;;;;30.67;37.59;100084.13;255062;1104;115836;-69
2021/07/11 09:17:33;;;;;;;1.98;1.68;;;;;;;31.09;37.66;100086.95;254470;1104;118327;-70
2021/07/11 09:22:37;;;;;;;2.03;1.93;;;;;;;31.02;37.22;100086.81;254495;1100;114898;-67
2021/07/11 09:27:41;;;;;;;9.15;2.10;;;;;;;31.32;38.12;100077.95;254222;1104;115921;-69
2021/07/11 09:32:49;;;;;;;1.87;1.77;;;;;;;31.11;37.11;100084.64;255321;1104;114533;-69
2021/07/11 09:37:56;;;;;;;3.33;1.83;;;;;;;30.68;37.01;100077.47;254139;1100;114817;-69
2021/07/11 09:42:59;;;;;;;3.78;2.08;;;;;;;30.93;38.12;100066.16;255147;1099;115042;-69
2021/07/11 09:48:08;;;;;;;2.33;2.18;;;;;;;31.30;38.06;100063.75;254211;1104;115260;-68
2021/07/11 09:53:13;;;;;;;1.80;1.70;;;;;;;31.56;37.20;100072.08;254233;1104;115437;-69
2021/07/11 09:58:17;;;;;;;2.30;2.20;;;;;;;31.65;37.51;100072.64;254144;1104;115317;-68
2021/07/11 10:03:23;;;;;;;2.13;2.05;;;;;;;31.55;37.07;100072.45;254765;1104;114999;-67
2021/07/11 10:08:28;;;;;;;2.13;2.03;;;;;;;31.31;37.13;100082.67;255300;1104;115025;-68
2021/07/11 10:13:33;;;;;;;2.35;2.25;;;;;;;31.25;37.54;100073.11;255316;1104;115064;-68
2021/07/11 10:18:39;;;;;;;1.50;1.50;;;;;;;31.05;37.44;100069.56;255509;1104;115020;-68
2021/07/11 10:23:44;;;;;;;2.13;2.03;;;;;;;31.22;37.20;100067.53;255574;1100;114743;-68
2021/07/11 10:28:50;;;;;;;2.50;2.30;;;;;;;30.61;37.17;100060.00;254458;1104;115326;-67
2021/07/11 10:33:55;;;;;;;2.08;2.00;;;;;;;30.30;37.81;100056.17;256348;1104;115347;-67
2021/07/11 10:38:59;;;;;;;2.47;2.37;;;;;;;30.25;38.00;100045.48;256263;1104;116439;-67
2021/07/11 10:44:07;;;;;;;2.78;2.60;;;;;;;29.92;38.11;100047.82;257332;1104;115433;-67
2021/07/11 10:49:21;;;;;;;2.58;2.35;;;;;;;29.80;38.67;100046.77;257218;1104;204533;-68
2021/07/11 10:54:34;;;;;;;2.47;2.37;;;;;;;30.00;38.51;100044.09;257056;1104;116112;-69
2021/07/11 10:59:43;;;;;;;2.10;2.00;;;;;;;30.04;38.24;100043.02;255405;1104;116409;-68
2021/07/11 11:04:57;;;;;;;2.07;1.97;;;;;;;29.92;38.00;100050.57;254710;1104;115270;-70
2021/07/11 11:10:01;;;;;;;2.60;2.50;;;;;;;29.98;39.04;100040.88;256009;1098;116198;-67
2021/07/11 11:15:15;;;;;;;2.43;2.33;;;;;;;30.02;39.71;100044.53;255144;1104;115988;-67
2021/07/11 11:20:19;;;;;;;2.48;2.25;;;;;;;30.03;39.39;100030.44;255076;1104;115229;-68
2021/07/11 11:25:23;;;;;;;2.20;2.10;;;;;;;30.04;39.14;100031.23;254426;1104;116187;-68
2021/07/11 11:30:27;;;;;;;2.58;2.43;;;;;;;30.13;38.50;100045.59;254562;1104;114832;-68
2021/07/11 11:35:32;;;;;;;2.58;2.43;;;;;;;30.33;39.27;100041.71;254191;1104;116274;-69
2021/07/11 11:40:37;;;;;;;4.85;2.30;;;;;;;30.48;38.71;100040.88;254662;1104;116107;-69
2021/07/11 11:45:40;;;;;;;2.13;1.98;;;;;;;30.65;37.98;100028.66;254216;1104;115488;-68
2021/07/11 11:50:43;;;;;;;4.55;2.50;;;;;;;30.74;38.02;100023.74;254354;1104;116315;-68
2021/07/11 11:55:57;;;;;;;2.43;2.28;;;;;;;30.83;37.89;100023.52;254292;1104;115950;-67
2021/07/11 12:01:06;;;;;;;2.40;2.30;;;;;;;30.54;37.72;100026.83;254504;1104;116066;-67
2021/07/11 12:19:49;;;;;;;2.37;2.27;;;;;;;29.75;38.62;100002.27;259511;1090;103104;-68
2021/07/11 17:47:36;;;;;;;2.93;2.70;;;;;;;24.74;52.39;99882.34;261207;1094;103115;-70
2021/07/11 17:52:40;;;;;;;3.10;2.90;;;;;;;24.74;52.37;99887.78;254399;1104;120295;-70
2021/07/11 17:57:45;;;;;;;5.10;2.90;;;;;;;24.71;52.71;99882.98;254182;1104;116929;-71
2021/07/11 18:02:49;;;;;;;3.27;2.97;;;;;;;24.66;53.58;99893.25;255518;1104;115313;-70
2021/07/11 18:07:56;;;;;;;3.60;3.30;;;;;;;24.51;54.03;99905.45;254085;1104;116162;-71
2021/07/11 18:13:00;;;;;;;3.25;3.05;;;;;;;24.32;54.52;99919.43;254204;1104;115793;-71
2021/07/11 18:18:06;;;;;;;3.65;3.45;;;;;;;24.19;54.94;99915.70;254398;1104;115937;-70
2021/07/11 18:23:10;;;;;;;5.53;3.83;;;;;;;24.08;55.32;99903.55;254317;1104;115331;-70
2021/07/11 18:28:14;;;;;;;3.03;2.93;;;;;;;23.95;55.53;99904.49;254174;1104;115790;-70
2021/07/11 18:33:26;;;;;;;3.38;3.18;;;;;;;23.81;56.37;99903.85;254524;1104;115779;-71
2021/07/11 18:38:30;;;;;;;5.07;3.57;;;;;;;23.70;56.69;99916.16;254567;1104;115555;-70
2021/07/11 18:43:34;;;;;;;3.50;3.30;;;;;;;23.61;56.79;99910.69;254651;1104;121499;-70
2021/07/11 18:48:38;;;;;;;3.90;3.70;;;;;;;23.51;57.22;99908.25;254130;1104;116779;-70
2021/07/11 18:53:42;;;;;;;4.03;3.73;;;;;;;23.39;57.56;99908.84;254882;1104;115845;-71
2021/07/11 18:58:46;;;;;;;4.87;3.77;;;;;;;23.26;57.80;99893.42;255013;1104;116316;-71
2021/07/11 19:03:50;;;;;;;4.15;3.95;;;;;;;23.06;58.06;99889.36;254441;1104;115669;-70
2021/07/11 19:08:55;;;;;;;4.60;4.20;;;;;;;22.90;58.86;99890.10;256229;1104;118588;-70
2021/07/11 19:13:59;;;;;;;4.77;4.37;;;;;;;22.77;59.27;99886.31;254962;1104;115789;-68
2021/07/11 19:19:03;;;;;;;4.23;3.78;;;;;;;22.68;59.76;99893.61;254113;1104;117335;-69
2021/07/11 19:24:07;;;;;;;4.43;4.03;;;;;;;22.56;59.89;99885.25;253874;1106;116378;-70
2021/07/11 19:29:11;;;;;;;3.80;3.60;;;;;;;22.36;59.86;99898.20;255702;1104;116724;-70
2021/07/11 19:34:18;;;;;;;4.60;4.30;;;;;;;22.18;60.41;99907.34;257148;1104;114857;-70
2021/07/11 19:39:22;;;;;;;5.00;4.70;;;;;;;22.06;61.11;99910.59;254870;1104;116346;-70
2021/07/11 19:44:27;;;;;;;16.67;4.17;;;;;;;21.98;61.56;99899.64;256195;1106;115838;-70
2021/07/11 19:49:32;;;;;;;5.27;4.83;;;;;;;21.90;61.78;99903.08;256938;1104;115366;-71
2021/07/11 19:54:37;;;;;;;5.70;5.20;;;;;;;21.77;61.81;99902.79;256079;1104;119572;-72
2021/07/11 19:59:41;;;;;;;5.40;5.03;;;;;;;21.69;62.24;99902.73;256446;1100;115395;-70
2021/07/11 20:04:45;;;;;;;9.83;7.50;;;;;;;21.61;62.46;99917.80;255470;1104;114789;-70
2021/07/11 20:09:50;;;;;;;5.18;4.73;;;;;;;21.44;62.54;99914.89;255484;1104;119667;-70
2021/07/11 20:14:54;;;;;;;6.00;5.50;;;;;;;21.18;62.87;99926.20;254457;1104;115505;-69
2021/07/11 20:19:58;;;;;;;5.20;4.80;;;;;;;21.15;63.88;99918.67;256030;1104;114646;-70
2021/07/11 20:25:05;;;;;;;8.10;4.98;;;;;;;21.15;64.11;99913.25;255122;1104;118213;-70
2021/07/11 20:30:12;;;;;;;4.95;4.40;;;;;;;21.15;64.36;99902.41;254098;1099;116115;-69
2021/07/11 20:35:17;;;;;;;5.65;5.15;;;;;;;21.10;64.38;99905.20;254852;1104;115410;-71
2021/07/11 20:40:21;;;;;;;5.53;5.13;;;;;;;20.96;64.36;99912.53;254607;1104;115417;-71
2021/07/11 20:45:32;;;;;;;6.00;5.53;;;;;;;20.69;64.40;99921.41;254515;1104;116531;-71
2021/07/11 20:50:37;;;;;;;4.95;4.55;;;;;;;20.49;65.07;99929.86;254193;1107;115887;-71
2021/07/11 20:55:43;;;;;;;4.60;4.30;;;;;;;20.44;65.73;99917.23;253960;1106;116158;-71
2021/07/11 21:00:48;;;;;;;5.78;5.38;;;;;;;20.45;65.94;99918.84;254461;1106;114229;-70
2021/07/11 21:05:55;;;;;;;5.25;4.78;;;;;;;20.44;66.03;99914.52;254743;1104;115746;-70
2021/07/11 21:11:00;;;;;;;4.33;4.13;;;;;;;20.26;65.93;99900.96;253958;1104;115223;-69
2021/07/11 21:16:05;;;;;;;11.05;6.95;;;;;;;20.16;66.67;99874.88;254169;1100;115541;-69
2021/07/11 21:21:10;;;;;;;10.75;7.20;;;;;;;20.09;66.93;99890.67;254585;1104;115979;-69
2021/07/11 21:26:15;;;;;;;7.28;6.58;;;;;;;20.12;67.23;99895.50;256108;1104;115869;-69
2021/07/11 21:31:21;;;;;;;6.63;6.18;;;;;;;20.19;67.45;99877.77;255750;1104;116383;-69
2021/07/11 21:36:27;;;;;;;7.50;6.80;;;;;;;20.13;67.45;99889.80;257163;1104;117311;-71
2021/07/11 21:41:33;;;;;;;6.90;6.40;;;;;;;20.12;67.70;99852.20;257284;1104;136882;-69
2021/07/11 21:46:39;;;;;;;8.45;6.98;;;;;;;20.23;68.34;99817.64;256992;1104;115449;-70
2021/07/11 21:51:44;;;;;;;6.00;5.50;;;;;;;20.32;68.46;99778.77;256278;1104;114832;-71
2021/07/11 21:56:49;;;;;;;5.63;5.13;;;;;;;20.44;68.74;99762.89;257071;1104;115113;-70
2021/07/11 22:01:55;;;;;;;5.65;5.25;;;;;;;20.43;68.75;99749.65;255993;1104;117788;-70
2021/07/11 22:07:00;;;;;;;10.05;5.58;;;;;;;20.37;68.81;99764.34;255350;1099;115495;-70
2021/07/11 22:12:05;;;;;;;5.63;4.65;;;;;;;20.36;68.84;99760.03;254025;1104;115156;-71
2021/07/11 22:17:11;;;;;;;4.70;4.40;;;;;;;20.36;68.47;99732.95;255340;1104;117225;-72
2021/07/11 22:22:16;;;;;;;5.40;4.90;;;;;;;20.24;69.15;99727.22;255681;1104;115166;-70
2021/07/11 22:27:22;;;;;;;10.03;5.90;;;;;;;20.17;69.34;99798.80;254185;1100;116450;-71
2021/07/11 22:32:27;;;;;;;;;;;;;;;20.06;69.48;99797.35;254516;1104;115188;-70
2021/07/11 22:37:34;;;;;;;9.20;6.40;;;;;;;20.02;69.70;99819.88;255038;1104;103047;-70
2021/07/11 22:42:40;;;;;;;6.08;5.05;;;;;;;20.04;70.24;99831.22;254174;1104;115050;-71
2021/07/11 22:47:45;;;;;;;5.47;4.97;;;;;;;20.08;69.99;99837.65;254781;1104;117571;-70
2021/07/11 22:52:50;;;;;;;5.40;4.93;;;;;;;20.09;70.56;99820.31;254237;1104;115269;-71
2021/07/11 22:57:55;;;;;;;;;;;;;;;20.05;70.63;99843.65;254324;1104;114833;-70
2021/07/11 23:03:02;;;;;;;5.70;5.20;;;;;;;19.82;70.65;99856.17;256045;1104;103040;-70
2021/07/11 23:08:08;;;;;;;12.10;5.57;;;;;;;19.76;70.79;99850.03;255438;1107;116206;-71
2021/07/11 23:13:13;;;;;;;4.77;4.37;;;;;;;19.81;71.06;99846.45;255362;1100;116009;-70
2021/07/11 23:18:18;;;;;;;9.63;5.55;;;;;;;19.82;71.20;99848.06;254344;1100;115366;-69
2021/07/11 23:23:24;;;;;;;6.17;5.57;;;;;;;19.78;70.98;99842.42;256150;1104;115608;-68
2021/07/11 23:28:29;;;;;;;5.15;4.73;;;;;;;19.75;70.98;99843.02;254300;1106;115726;-68
2021/07/11 23:33:34;;;;;;;5.48;5.08;;;;;;;19.63;71.48;99850.74;254139;1104;115401;-68
2021/07/11 23:38:39;;;;;;;5.70;5.30;;;;;;;19.69;71.68;99859.59;255684;1104;115049;-68
2021/07/11 23:43:45;;;;;;;6.13;5.67;;;;;;;19.65;71.55;99853.96;255866;1099;114309;-69
2021/07/11 23:48:50;;;;;;;7.50;6.43;;;;;;;19.59;71.50;99855.13;255069;1104;115982;-69
2021/07/11 23:53:56;;;;;;;11.30;6.03;;;;;;;19.55;71.60;99848.71;257164;1104;116195;-69
2021/07/11 23:59:01;;;;;;;5.95;5.43;;;;;;;19.48;71.16;99842.82;255609;1105;115297;-70
